KTVI/TVI METAR and TAF weather

Enter ICAO airport designator
Station Type Date Time Source
KTVI METAR 2020/09/18 19:35 UTC NOAA

KTVI 181935Z AUTO 36009G14KT 10SM SCT024 SCT031 OVC039 27/21 A2991 RMK AO2


Station Type Date Time Source
KTVI Decoded METAR 2020/09/18 19:35 UTC NOAA

Thomasville, GA, United States (KTVI) 30-54-06N 083-52-53W
Sep 18, 2020 - 03:35 PM EDT / 2020.09.18 1935 UTC
Wind: from the N (360 degrees) at 10 MPH (9 KT) gusting to 16 MPH (14 KT):0
Visibility: 10 mile(s):0
Sky conditions: overcast
Temperature: 80 F (27 C)
Dew Point: 69 F (21 C)
Relative Humidity: 69%
Pressure (altimeter): 29.91 in. Hg (1012 hPa)
ob: KTVI 181935Z AUTO 36009G14KT 10SM SCT024 SCT031 OVC039 27/21 A2991 RMK AO2
cycle: 19

Station Type Date Time Source
KTVI TAF UTC NOAA

Error!

Example: see airport list